LTA weather

La Angostura Airport
Caborca, Sonora, Mexico

Public forecast

Using degrees Celsius for public forecast. Weather courtesy of forecast.io.

Closest aviation weather report (METAR) to La Angostura Airport

Closest report is (Old) Puerto PeƱasco Airport, 47.5 nm (88.0 km) NW. Retrieved UTC (0 seconds ago):

Closest aviation forecast (TAF) to La Angostura Airport

Closest forecast is Nogales International Airport, 106.7 nm (197.5 km) ENE. Retrieved 2019/12/05 18:27 UTC (44 minutes ago):

TAF KOLS 051725Z 0518/0618 VRB04KT P6SM SCT050 SCT200 FM052100 29007KT P6SM SCT050 BKN200 FM060300 VRB03KT P6SM BKN200